Terminal Aerodrome Forecast
Issued by NWS

Current Version | Previous Version | Text Only | Print | Product List | Glossary On
Versions: 1 2 3 4 5 6 7 8 9 10 11 12 13 14 15 16 17 18
000
FTUS42 KMLB 210541
TAFISM
TAF
KISM 210541Z 2106/2206 08005KT P6SM VCSH SCT035 OVC100
     FM211300 12007KT P6SM FEW030 SCT050 OVC100
     FM211600 13011KT P6SM VCSH SCT025 BKN050 OVC080
      TEMPO 2117/2121 3SM TSRA BKN015CB OVC030
     FM212200 12010KT 5SM -RA SCT010 BKN020 OVC040
     FM220200 11005KT P6SM SCT020 BKN040 OVC060=

USA.gov is the U.S. government's official web portal to all federal, state and local government web resources and services.